createdAt,value
2019-03-01T00:00:57.155Z,12.07
2019-03-01T00:02:13.101Z,13.10
2019-03-01T00:03:29.305Z,11.95
2019-03-01T00:04:45.509Z,13.55
2019-03-01T00:06:01.433Z,13.13
2019-03-01T00:07:17.282Z,14.03
2019-03-01T00:08:33.370Z,13.07
2019-03-01T00:09:49.717Z,13.90
2019-03-01T00:11:05.916Z,14.77
2019-03-01T00:12:21.796Z,13.63
2019-03-01T00:13:37.963Z,14.27
2019-03-01T00:14:53.904Z,13.35
2019-03-01T00:16:10.105Z,15.47
2019-03-01T00:17:26.159Z,15.37
2019-03-01T00:18:42.363Z,13.75
2019-03-01T00:19:58.427Z,14.00
2019-03-01T00:21:14.434Z,13.63
2019-03-01T00:22:30.623Z,14.97
2019-03-01T00:23:47.018Z,14.70
2019-03-01T00:25:03.000Z,14.40
2019-03-01T00:26:19.168Z,14.27
2019-03-01T00:27:35.394Z,14.43
2019-03-01T00:28:51.305Z,16.00
2019-03-01T00:30:07.790Z,14.30
2019-03-01T00:31:28.343Z,15.47
2019-03-01T00:32:43.866Z,14.07
2019-03-01T00:33:59.822Z,13.75
2019-03-01T00:35:15.649Z,14.90
2019-03-01T00:36:31.565Z,15.07
2019-03-01T00:37:47.310Z,15.27
2019-03-01T00:39:04.662Z,14.40
2019-03-01T00:40:21.021Z,15.93
2019-03-01T00:41:36.774Z,15.83
2019-03-01T00:42:52.541Z,15.65
2019-03-01T00:44:08.319Z,15.20
2019-03-01T00:45:24.348Z,13.03
2019-03-01T00:46:40.604Z,16.07
2019-03-01T00:47:56.669Z,16.03
2019-03-01T00:49:12.492Z,15.13
2019-03-01T00:50:28.487Z,14.80
2019-03-01T00:51:44.438Z,16.10
2019-03-01T00:53:00.369Z,15.47
2019-03-01T00:54:16.101Z,15.17
2019-03-01T00:55:32.233Z,14.73
2019-03-01T00:56:47.842Z,15.90
2019-03-01T00:58:04.123Z,14.87
2019-03-01T00:59:20.033Z,15.08
2019-03-01T01:00:36.171Z,15.73
2019-03-01T01:01:51.956Z,16.27
2019-03-01T01:03:07.816Z,17.03
2019-03-01T01:04:23.640Z,15.90
2019-03-01T01:05:39.917Z,15.87
2019-03-01T01:06:56.073Z,15.73
2019-03-01T01:08:12.305Z,16.27
2019-03-01T01:09:28.245Z,16.40
2019-03-01T01:10:44.143Z,16.90
2019-03-01T01:12:00.283Z,16.53
2019-03-01T01:13:16.159Z,17.65
2019-03-01T01:14:32.287Z,17.53
2019-03-01T01:15:48.246Z,19.47
2019-03-01T01:17:03.935Z,19.37
2019-03-01T01:18:19.847Z,18.50
2019-03-01T01:19:35.749Z,18.35
2019-03-01T01:20:51.772Z,17.87
2019-03-01T01:22:07.520Z,18.53
2019-03-01T01:23:23.695Z,19.40
2019-03-01T01:24:39.491Z,18.50
2019-03-01T01:25:55.646Z,18.30
2019-03-01T01:27:12.647Z,19.53
2019-03-01T01:28:29.066Z,19.00
2019-03-01T01:29:45.111Z,20.30
2019-03-01T01:31:01.071Z,20.10
2019-03-01T01:32:16.985Z,20.17
2019-03-01T01:33:33.353Z,21.40
2019-03-01T01:34:49.567Z,20.87
2019-03-01T01:36:05.592Z,21.53
2019-03-01T01:37:22.038Z,22.37
2019-03-01T01:38:37.973Z,23.33
2019-03-01T01:39:53.942Z,22.83
2019-03-01T01:41:09.996Z,23.27
2019-03-01T01:42:26.608Z,21.50
2019-03-01T01:43:42.762Z,21.67
2019-03-01T01:44:58.877Z,23.53
2019-03-01T01:46:14.992Z,22.83
2019-03-01T01:47:30.885Z,21.70
2019-03-01T01:48:46.614Z,22.70
2019-03-01T01:50:02.660Z,23.97
2019-03-01T01:51:18.601Z,23.80
2019-03-01T01:52:34.737Z,24.17
2019-03-01T01:53:51.054Z,24.20
2019-03-01T01:55:07.332Z,23.57
2019-03-01T01:56:23.038Z,23.90
2019-03-01T01:57:39.159Z,24.00
2019-03-01T01:58:55.281Z,24.70
2019-03-01T02:00:11.584Z,23.90
2019-03-01T02:01:27.724Z,25.07
2019-03-01T02:02:43.850Z,25.17
2019-03-01T02:04:00.134Z,24.13
2019-03-01T02:05:15.880Z,25.83
2019-03-01T02:06:31.813Z,24.77
2019-03-01T02:07:47.798Z,24.80
2019-03-01T02:09:04.226Z,24.67
2019-03-01T02:10:20.366Z,25.70
2019-03-01T02:11:36.756Z,24.50
2019-03-01T02:12:53.152Z,25.92
2019-03-01T02:14:09.083Z,25.50
2019-03-01T02:15:24.875Z,24.30
2019-03-01T02:16:40.905Z,23.83
2019-03-01T02:17:56.826Z,25.10
2019-03-01T02:19:12.941Z,23.97
2019-03-01T02:20:29.285Z,24.03
2019-03-01T02:21:45.122Z,23.33
2019-03-01T02:23:00.950Z,22.30
2019-03-01T02:24:16.680Z,23.40
2019-03-01T02:25:32.418Z,23.40
2019-03-01T02:26:48.673Z,23.40
2019-03-01T02:28:04.708Z,22.53
2019-03-01T02:29:21.042Z,25.03
2019-03-01T02:30:37.003Z,23.27
2019-03-01T02:31:52.853Z,24.37
2019-03-01T02:33:08.810Z,24.20
2019-03-01T02:34:24.918Z,22.93
2019-03-01T02:35:41.122Z,22.73
2019-03-01T02:36:57.158Z,24.30
2019-03-01T02:38:13.118Z,23.03
2019-03-01T02:39:29.159Z,22.73
2019-03-01T02:40:44.974Z,22.60
2019-03-01T02:42:01.069Z,22.60
2019-03-01T02:43:16.974Z,24.07
2019-03-01T02:44:32.747Z,23.43
2019-03-01T02:45:48.516Z,23.37
2019-03-01T02:47:04.512Z,21.17
2019-03-01T02:48:20.439Z,22.17
2019-03-01T02:49:38.633Z,22.07
2019-03-01T02:50:54.227Z,21.87
2019-03-01T02:52:10.296Z,24.00
2019-03-01T02:53:26.155Z,24.50
2019-03-01T02:54:42.364Z,21.83
2019-03-01T02:55:58.514Z,22.57
2019-03-01T02:57:14.779Z,24.10
2019-03-01T02:58:30.889Z,23.80
2019-03-01T02:59:46.773Z,25.80
2019-03-01T03:01:02.639Z,26.43
2019-03-01T03:02:18.536Z,25.17
2019-03-01T03:03:34.463Z,25.53
2019-03-01T03:04:50.397Z,26.90
2019-03-01T03:06:25.565Z,26.07
2019-03-01T03:07:46.473Z,25.27
2019-03-01T03:09:02.072Z,26.77
2019-03-01T03:10:18.256Z,28.17
2019-03-01T03:11:34.207Z,30.10
2019-03-01T03:12:50.085Z,28.20
2019-03-01T03:14:06.239Z,27.60
2019-03-01T03:17:06.571Z,28.47
2019-03-01T03:18:22.780Z,28.50
2019-03-01T03:19:38.826Z,28.93
2019-03-01T03:20:54.722Z,29.03
2019-03-01T03:22:10.710Z,27.93
2019-03-01T03:23:26.340Z,27.93
2019-03-01T03:24:42.342Z,28.40
2019-03-01T03:25:58.666Z,27.20
2019-03-01T03:27:15.082Z,28.63
2019-03-01T03:28:30.903Z,27.83
2019-03-01T03:29:47.134Z,27.63
2019-03-01T03:31:03.228Z,28.53
2019-03-01T03:32:19.156Z,27.47
2019-03-01T03:33:35.159Z,26.60
2019-03-01T03:34:51.454Z,26.63
2019-03-01T03:36:07.464Z,26.13
2019-03-01T03:37:23.436Z,26.10
2019-03-01T03:38:39.550Z,26.33
2019-03-01T03:39:55.618Z,25.83
2019-03-01T03:41:11.506Z,27.87
2019-03-01T03:42:27.929Z,25.83
2019-03-01T03:43:43.590Z,25.00
2019-03-01T03:44:59.735Z,26.27
2019-03-01T03:46:15.931Z,27.80
2019-03-01T03:47:31.951Z,26.40
2019-03-01T03:48:48.208Z,26.67
2019-03-01T03:50:04.242Z,27.43
2019-03-01T03:51:20.445Z,26.67
2019-03-01T03:52:36.714Z,25.27
2019-03-01T03:53:52.688Z,25.40
2019-03-01T03:55:08.990Z,26.30
2019-03-01T03:56:24.901Z,26.17
2019-03-01T03:57:40.743Z,27.13
2019-03-01T03:58:56.944Z,26.07
2019-03-01T04:00:13.142Z,25.83
2019-03-01T04:01:29.132Z,25.43
2019-03-01T04:02:45.411Z,27.43
2019-03-01T04:04:01.541Z,27.27
2019-03-01T04:05:17.367Z,25.87
2019-03-01T04:06:33.267Z,25.73
2019-03-01T04:07:49.226Z,26.17
2019-03-01T04:09:05.186Z,27.33
2019-03-01T04:10:20.930Z,25.93
2019-03-01T04:11:37.054Z,26.70
2019-03-01T04:12:53.172Z,25.97
2019-03-01T04:14:09.517Z,25.77
2019-03-01T04:15:25.392Z,25.80
2019-03-01T04:16:41.311Z,24.43
2019-03-01T04:17:58.270Z,26.50
2019-03-01T04:19:14.423Z,25.53
2019-03-01T04:20:30.320Z,23.33
2019-03-01T04:21:46.399Z,25.60
2019-03-01T04:23:02.076Z,25.70
2019-03-01T04:24:18.349Z,27.53
2019-03-01T04:25:34.391Z,25.57
2019-03-01T04:26:50.504Z,25.50
2019-03-01T04:28:06.749Z,25.17
2019-03-01T04:29:22.991Z,24.73
2019-03-01T04:30:38.909Z,24.10
2019-03-01T04:31:55.086Z,25.63
2019-03-01T04:33:10.929Z,25.70
2019-03-01T04:34:27.013Z,25.23
2019-03-01T04:35:43.046Z,24.93
2019-03-01T04:36:58.994Z,26.50
2019-03-01T04:38:14.822Z,25.90
2019-03-01T04:39:30.695Z,24.83
2019-03-01T04:40:46.685Z,23.87
2019-03-01T04:42:03.074Z,25.10
2019-03-01T04:43:18.614Z,22.65
2019-03-01T04:44:34.994Z,23.73
2019-03-01T04:45:51.469Z,22.90
2019-03-01T04:47:07.163Z,23.43
2019-03-01T04:48:23.015Z,22.57
2019-03-01T04:49:38.829Z,22.87
2019-03-01T04:50:54.812Z,24.40
2019-03-01T04:52:10.778Z,22.17
2019-03-01T04:53:26.669Z,23.57
2019-03-01T04:54:42.981Z,22.13
2019-03-01T04:55:59.550Z,21.63
2019-03-01T04:57:16.083Z,21.68
2019-03-01T04:58:32.378Z,21.07
2019-03-01T04:59:48.447Z,21.53
2019-03-01T05:01:04.517Z,23.40
2019-03-01T05:02:21.269Z,21.10
2019-03-01T05:03:37.145Z,21.93
2019-03-01T05:04:53.117Z,21.03
2019-03-01T05:06:09.012Z,20.70
2019-03-01T05:07:25.122Z,21.60
2019-03-01T05:08:41.143Z,23.03
2019-03-01T05:09:57.329Z,20.80
2019-03-01T05:11:13.012Z,20.20
2019-03-01T05:12:29.296Z,22.27
2019-03-01T05:13:45.173Z,21.73
2019-03-01T05:15:01.217Z,20.73
2019-03-01T05:16:17.040Z,20.73
2019-03-01T05:17:33.102Z,21.60
2019-03-01T05:18:49.216Z,22.53
2019-03-01T05:20:05.688Z,21.97
2019-03-01T05:21:22.224Z,20.93
2019-03-01T05:22:38.275Z,20.83
2019-03-01T05:23:54.700Z,21.73
2019-03-01T05:25:10.567Z,21.35
2019-03-01T05:26:26.357Z,23.20
2019-03-01T05:27:42.275Z,21.60
2019-03-01T05:28:58.203Z,22.27
2019-03-01T05:30:14.074Z,22.07
2019-03-01T05:31:18.547Z,22.77
2019-03-01T05:32:42.030Z,21.70
2019-03-01T05:34:05.833Z,21.73
2019-03-01T05:35:29.377Z,22.47
2019-03-01T05:41:34.928Z,22.33
2019-03-01T05:42:58.381Z,20.67
2019-03-01T05:46:04.455Z,19.93
2019-03-01T05:49:10.675Z,21.63
2019-03-01T05:52:16.619Z,20.47
2019-03-01T05:55:10.559Z,20.97
2019-03-01T05:56:34.198Z,21.37
2019-03-01T05:58:16.972Z,22.97
2019-03-01T05:59:40.545Z,21.13
2019-03-01T06:01:06.048Z,20.00
2019-03-01T06:02:41.722Z,20.87
2019-03-01T06:04:09.627Z,21.43
2019-03-01T06:07:43.983Z,19.47
2019-03-01T06:09:13.234Z,22.30
2019-03-01T06:10:55.836Z,21.37
2019-03-01T06:12:38.720Z,21.87
2019-03-01T06:14:21.471Z,23.07
2019-03-01T06:16:04.046Z,20.27
2019-03-01T06:17:46.542Z,20.43
2019-03-01T06:19:29.056Z,22.57
2019-03-01T06:20:58.432Z,21.60
2019-03-01T06:22:40.883Z,21.20
2019-03-01T06:24:23.822Z,21.37
2019-03-01T06:26:06.798Z,21.00
2019-03-01T06:27:49.479Z,21.23
2019-03-01T06:29:32.140Z,20.83
2019-03-01T06:31:11.031Z,20.13
2019-03-01T06:32:53.525Z,20.90
2019-03-01T06:34:36.064Z,21.93
2019-03-01T06:36:19.528Z,20.63
2019-03-01T06:38:02.798Z,22.23
2019-03-01T06:40:04.141Z,20.67
2019-03-01T06:41:46.813Z,20.33
2019-03-01T06:43:29.686Z,21.03
2019-03-01T06:45:12.270Z,20.03
2019-03-01T06:50:18.300Z,21.23
2019-03-01T06:53:10.599Z,20.60
2019-03-01T06:56:16.943Z,20.40
2019-03-01T06:59:09.593Z,21.03
2019-03-01T07:04:13.010Z,20.27
2019-03-01T07:05:36.609Z,19.77
2019-03-01T07:07:00.069Z,21.93
2019-03-01T07:09:58.449Z,21.07
2019-03-01T07:13:06.112Z,21.60
2019-03-01T07:16:13.749Z,20.67
2019-03-01T07:17:37.214Z,20.60
2019-03-01T07:19:00.642Z,22.27
2019-03-01T07:22:06.592Z,21.97
2019-03-01T07:23:36.521Z,23.02
2019-03-01T07:25:07.071Z,21.70
2019-03-01T07:26:20.475Z,21.90
2019-03-01T07:29:28.145Z,22.37
2019-03-01T07:30:51.672Z,22.07
2019-03-01T07:34:10.100Z,21.90
2019-03-01T07:35:23.408Z,22.40
2019-03-01T07:38:22.422Z,22.87
2019-03-01T07:39:38.547Z,23.45
2019-03-01T07:40:54.864Z,23.43
2019-03-01T07:42:11.298Z,23.77
2019-03-01T07:43:27.503Z,22.33
2019-03-01T07:44:44.679Z,22.70
2019-03-01T07:46:01.436Z,22.73
2019-03-01T07:47:17.722Z,23.67
2019-03-01T07:48:33.566Z,22.53
2019-03-01T07:49:49.622Z,22.13
2019-03-01T07:54:41.110Z,23.65
2019-03-01T07:55:57.201Z,23.53
2019-03-01T07:57:14.826Z,23.03
2019-03-01T07:58:30.981Z,23.22
2019-03-01T07:59:46.960Z,22.73
2019-03-01T08:01:03.059Z,24.50
2019-03-01T08:02:18.784Z,22.60
2019-03-01T08:03:35.103Z,23.33
2019-03-01T08:04:51.228Z,23.40
2019-03-01T08:06:07.078Z,23.95
2019-03-01T08:07:23.526Z,23.03
2019-03-01T08:08:40.192Z,21.60
2019-03-01T08:09:55.936Z,23.87
2019-03-01T08:11:12.306Z,23.97
2019-03-01T08:12:28.235Z,24.00
2019-03-01T08:13:44.748Z,22.73
2019-03-01T08:15:04.131Z,24.07
2019-03-01T08:19:36.106Z,23.07
2019-03-01T08:22:48.592Z,25.43
2019-03-01T08:24:07.648Z,25.23
2019-03-01T08:25:33.125Z,27.03
2019-03-01T08:28:39.762Z,23.57
2019-03-01T08:30:03.180Z,24.40
2019-03-01T08:33:22.644Z,24.90
2019-03-01T08:34:46.141Z,22.90
2019-03-01T08:37:31.916Z,23.17
2019-03-01T08:38:48.987Z,24.40
2019-03-01T08:40:05.974Z,23.63
2019-03-01T08:41:25.181Z,25.13
2019-03-01T08:42:39.905Z,23.80
2019-03-01T08:43:56.282Z,25.00
2019-03-01T08:45:12.022Z,25.03
2019-03-01T08:46:28.815Z,22.57
2019-03-01T08:47:45.109Z,23.37
2019-03-01T08:49:01.648Z,23.75
2019-03-01T08:50:17.390Z,22.98
2019-03-01T08:51:33.321Z,23.53
2019-03-01T08:52:49.225Z,22.17
2019-03-01T08:54:05.328Z,20.63
2019-03-01T08:55:21.569Z,21.07
2019-03-01T08:56:37.630Z,20.17
2019-03-01T08:57:53.604Z,21.57
2019-03-01T08:59:10.056Z,21.55
2019-03-01T09:00:27.014Z,22.57
2019-03-01T09:01:45.009Z,20.57
2019-03-01T09:03:02.603Z,19.10
2019-03-01T09:04:21.446Z,19.52
2019-03-01T09:05:37.398Z,19.42
2019-03-01T09:06:53.349Z,18.07
2019-03-01T09:08:09.187Z,19.98
2019-03-01T09:09:25.334Z,18.40
2019-03-01T09:10:41.282Z,18.20
2019-03-01T09:11:57.696Z,18.15
2019-03-01T09:13:13.590Z,17.70
2019-03-01T09:14:29.588Z,17.65
2019-03-01T09:15:46.177Z,17.87
2019-03-01T09:17:03.677Z,17.05
2019-03-01T09:18:19.808Z,17.67
2019-03-01T09:19:36.234Z,17.17
2019-03-01T09:20:52.103Z,16.75
2019-03-01T09:22:08.245Z,16.40
2019-03-01T09:23:27.339Z,16.95
2019-03-01T09:24:42.070Z,16.20
2019-03-01T09:25:58.307Z,17.62
2019-03-01T09:27:14.486Z,15.77
2019-03-01T09:28:32.769Z,16.10
2019-03-01T09:29:48.579Z,17.67
2019-03-01T09:31:04.203Z,16.05
2019-03-01T09:32:20.199Z,16.87
2019-03-01T09:33:36.253Z,16.67
2019-03-01T09:34:55.284Z,18.53
2019-03-01T09:36:30.243Z,17.23
2019-03-01T09:37:46.719Z,17.50
2019-03-01T09:39:03.304Z,18.23
2019-03-01T09:40:19.143Z,16.57
2019-03-01T09:41:36.587Z,17.67
2019-03-01T09:42:54.658Z,17.85
2019-03-01T09:44:12.010Z,17.65
2019-03-01T09:45:35.878Z,17.57
2019-03-01T09:46:46.381Z,19.30
2019-03-01T09:48:02.559Z,17.10
2019-03-01T09:49:21.503Z,18.30
2019-03-01T09:50:38.265Z,18.27
2019-03-01T09:51:54.582Z,18.90
2019-03-01T09:53:10.812Z,19.62
2019-03-01T09:54:26.701Z,17.57
2019-03-01T09:55:42.860Z,18.87
2019-03-01T09:56:59.123Z,18.32
2019-03-01T09:58:15.048Z,18.98
2019-03-01T09:59:31.255Z,17.48
2019-03-01T10:00:55.997Z,19.27
2019-03-01T10:02:05.545Z,18.27
2019-03-01T10:03:21.819Z,18.70
2019-03-01T10:04:37.757Z,18.70
2019-03-01T10:05:53.612Z,18.15
2019-03-01T10:07:09.497Z,19.37
2019-03-01T10:08:25.859Z,17.90
2019-03-01T10:09:41.937Z,18.40
2019-03-01T10:10:57.847Z,18.60
2019-03-01T10:12:14.115Z,19.62
2019-03-01T10:13:30.550Z,18.92
2019-03-01T10:14:46.614Z,19.52
2019-03-01T10:16:02.466Z,18.25
2019-03-01T10:17:18.440Z,19.55
2019-03-01T10:18:34.409Z,20.12
2019-03-01T10:19:52.543Z,19.30
2019-03-01T10:21:08.497Z,18.92
2019-03-01T10:22:24.740Z,20.77
2019-03-01T10:23:40.770Z,19.40
2019-03-01T10:24:56.698Z,20.68
2019-03-01T10:26:12.925Z,19.25
2019-03-01T10:27:28.744Z,19.73
2019-03-01T10:28:44.914Z,19.77
2019-03-01T10:30:01.159Z,19.70
2019-03-01T10:31:16.807Z,19.65
2019-03-01T10:32:32.810Z,20.12
2019-03-01T10:33:48.969Z,21.25
2019-03-01T10:35:04.820Z,20.43
2019-03-01T10:36:20.509Z,23.20
2019-03-01T10:37:36.491Z,26.93
2019-03-01T10:38:52.452Z,26.27
2019-03-01T10:40:08.810Z,28.38
2019-03-01T10:41:24.802Z,27.83
2019-03-01T10:42:40.997Z,26.73
2019-03-01T10:43:57.050Z,29.75
2019-03-01T10:45:13.354Z,28.77
2019-03-01T10:46:29.532Z,28.13
2019-03-01T10:47:45.577Z,28.17
2019-03-01T10:49:01.787Z,28.00
2019-03-01T10:50:17.658Z,28.77
2019-03-01T10:51:33.488Z,29.47
2019-03-01T10:52:49.593Z,28.10
2019-03-01T10:54:05.516Z,28.37
2019-03-01T10:55:21.557Z,28.37
2019-03-01T10:56:37.873Z,30.23
2019-03-01T10:57:53.905Z,29.00
2019-03-01T10:59:09.775Z,28.07
2019-03-01T11:00:26.141Z,27.30
2019-03-01T11:01:42.623Z,24.70
2019-03-01T11:02:58.723Z,24.93
2019-03-01T11:04:14.786Z,25.17
2019-03-01T11:05:30.808Z,23.20
2019-03-01T11:06:46.982Z,21.60
2019-03-01T11:08:02.861Z,21.00
2019-03-01T11:09:18.811Z,21.20
2019-03-01T11:10:34.737Z,20.23
2019-03-01T11:11:50.513Z,20.83
2019-03-01T11:13:06.642Z,20.10
2019-03-01T11:14:22.623Z,22.70
2019-03-01T11:15:38.867Z,22.67
2019-03-01T11:16:55.418Z,22.70
2019-03-01T11:18:11.845Z,22.47
2019-03-01T11:19:27.726Z,21.57
2019-03-01T11:20:43.718Z,24.43
2019-03-01T11:22:00.930Z,25.23
2019-03-01T11:23:16.573Z,25.87
2019-03-01T11:24:32.835Z,23.43
2019-03-01T11:25:48.922Z,21.63
2019-03-01T11:27:12.732Z,25.30
2019-03-01T11:28:22.921Z,22.70
2019-03-01T11:29:39.024Z,20.40
2019-03-01T11:30:54.985Z,18.70
2019-03-01T11:32:11.200Z,17.10
2019-03-01T11:33:27.185Z,16.53
2019-03-01T11:34:43.259Z,16.93
2019-03-01T11:35:59.306Z,16.17
2019-03-01T11:37:15.459Z,16.40
2019-03-01T11:38:31.483Z,16.50
2019-03-01T11:39:47.808Z,15.13
2019-03-01T11:41:04.402Z,16.10
2019-03-01T11:42:20.813Z,15.43
2019-03-01T11:43:36.673Z,16.53
2019-03-01T11:44:52.769Z,15.57
2019-03-01T11:46:08.961Z,18.23
2019-03-01T11:47:25.179Z,16.53
2019-03-01T11:48:41.836Z,16.87
2019-03-01T11:49:57.365Z,16.03
2019-03-01T11:51:13.255Z,15.27
2019-03-01T11:52:29.026Z,16.60
2019-03-01T11:53:44.966Z,14.90
2019-03-01T11:55:01.038Z,15.27
2019-03-01T11:56:17.203Z,14.87
2019-03-01T11:57:33.191Z,15.23
2019-03-01T11:58:49.247Z,15.07
2019-03-01T12:00:05.221Z,14.97
2019-03-01T12:01:16.864Z,14.03
2019-03-01T12:02:15.959Z,15.10
2019-03-01T12:03:20.408Z,13.40
2019-03-01T12:04:24.813Z,14.27
2019-03-01T12:05:29.171Z,14.67
2019-03-01T12:06:33.620Z,13.97
2019-03-01T12:07:37.983Z,14.07
2019-03-01T12:08:42.433Z,12.87
2019-03-01T12:09:46.813Z,14.63
2019-03-01T12:10:51.306Z,12.97
2019-03-01T12:11:55.770Z,12.40
2019-03-01T12:13:00.125Z,11.37
2019-03-01T12:14:07.261Z,12.77
2019-03-01T12:15:11.946Z,11.73
2019-03-01T12:16:16.440Z,12.07
2019-03-01T12:17:20.909Z,12.63
2019-03-01T12:18:25.342Z,12.20
2019-03-01T12:19:29.797Z,12.30
2019-03-01T12:20:34.331Z,12.03
2019-03-01T12:21:38.731Z,12.30
2019-03-01T12:22:43.166Z,10.97
2019-03-01T12:23:47.700Z,11.57
2019-03-01T12:24:52.229Z,11.90
2019-03-01T12:25:56.647Z,12.00
2019-03-01T12:27:01.093Z,12.27
2019-03-01T12:28:05.466Z,11.97
2019-03-01T12:29:09.907Z,11.00
2019-03-01T12:30:16.378Z,11.00
2019-03-01T12:31:20.872Z,11.40
2019-03-01T12:32:25.281Z,11.37
2019-03-01T12:33:29.639Z,11.27
2019-03-01T12:34:34.313Z,12.83
2019-03-01T12:35:38.967Z,10.83
2019-03-01T12:36:43.335Z,12.23
2019-03-01T12:37:47.889Z,11.53
2019-03-01T12:38:52.330Z,11.60
2019-03-01T12:39:56.727Z,11.93
2019-03-01T12:41:01.161Z,11.23
2019-03-01T12:42:05.662Z,11.43
2019-03-01T12:43:10.363Z,10.70
2019-03-01T12:44:14.900Z,12.57
2019-03-01T12:45:19.371Z,11.37
2019-03-01T12:46:23.860Z,12.30
2019-03-01T12:47:28.259Z,11.47
2019-03-01T12:48:32.688Z,12.07
2019-03-01T12:49:37.178Z,10.60
2019-03-01T12:50:41.836Z,11.40
2019-03-01T12:51:46.323Z,12.63
2019-03-01T12:52:50.777Z,12.77
2019-03-01T12:53:55.259Z,12.90
2019-03-01T12:54:59.786Z,12.87
2019-03-01T12:56:04.667Z,12.67
2019-03-01T12:57:09.088Z,12.80
2019-03-01T12:58:19.502Z,11.87
2019-03-01T12:59:19.748Z,13.00
2019-03-01T13:00:28.979Z,12.60
2019-03-01T13:01:33.441Z,13.07
2019-03-01T13:02:37.904Z,13.07
2019-03-01T13:03:43.825Z,13.17
2019-03-01T13:04:49.899Z,13.50
2019-03-01T13:05:54.502Z,13.53
2019-03-01T13:06:59.013Z,13.70
2019-03-01T13:08:03.759Z,13.40
2019-03-01T13:09:14.393Z,12.70
2019-03-01T13:10:24.299Z,12.83
2019-03-01T13:11:28.728Z,12.93
2019-03-01T13:12:33.194Z,13.63
2019-03-01T13:13:38.416Z,12.40
2019-03-01T13:14:43.786Z,12.93
2019-03-01T13:15:49.542Z,14.03
2019-03-01T13:16:54.353Z,12.60
2019-03-01T13:17:58.862Z,11.43
2019-03-01T13:19:03.260Z,11.77
2019-03-01T13:20:09.752Z,11.63
2019-03-01T13:21:14.184Z,11.33
2019-03-01T13:22:18.661Z,12.43
2019-03-01T13:23:23.081Z,11.90
2019-03-01T13:24:27.475Z,11.97
2019-03-01T13:25:31.936Z,11.80
2019-03-01T13:26:37.670Z,11.47
2019-03-01T13:27:42.561Z,9.90
2019-03-01T13:28:47.861Z,11.27
2019-03-01T13:29:55.269Z,11.00
2019-03-01T13:30:58.599Z,10.47
2019-03-01T13:32:03.154Z,9.93
2019-03-01T13:33:07.567Z,10.27
2019-03-01T13:34:13.755Z,10.10
2019-03-01T13:35:18.266Z,10.87
2019-03-01T13:36:22.809Z,9.20
2019-03-01T13:37:27.286Z,9.53
2019-03-01T13:38:34.003Z,10.57
2019-03-01T13:39:37.822Z,9.67
2019-03-01T13:40:42.494Z,9.77
2019-03-01T13:41:48.198Z,8.80
2019-03-01T13:42:52.733Z,10.13
2019-03-01T13:43:57.130Z,10.40
2019-03-01T13:45:01.600Z,9.73
2019-03-01T13:46:06.207Z,8.97
2019-03-01T13:47:10.705Z,10.57
2019-03-01T13:48:15.727Z,9.47
2019-03-01T13:49:21.326Z,9.77
2019-03-01T13:50:25.829Z,10.20
2019-03-01T13:51:30.295Z,9.63
2019-03-01T13:52:34.688Z,10.33
2019-03-01T13:53:48.525Z,10.00
2019-03-01T13:54:46.204Z,9.70
2019-03-01T13:55:51.433Z,9.40
2019-03-01T13:56:55.849Z,9.37
2019-03-01T13:58:00.317Z,8.37
2019-03-01T13:59:04.870Z,9.63
2019-03-01T14:00:12.119Z,9.03
2019-03-01T14:01:16.654Z,9.93
2019-03-01T14:02:21.242Z,9.27
2019-03-01T14:03:27.795Z,9.63
2019-03-01T14:04:31.699Z,9.93
2019-03-01T14:05:36.203Z,10.57
2019-03-01T14:06:40.604Z,9.33
2019-03-01T14:07:45.368Z,9.20
2019-03-01T14:08:49.832Z,9.73
2019-03-01T14:09:54.251Z,9.43
2019-03-01T14:10:58.732Z,9.77
2019-03-01T14:12:03.239Z,10.23
2019-03-01T14:13:07.647Z,10.47
2019-03-01T14:14:12.031Z,10.33
2019-03-01T14:15:17.215Z,9.70
2019-03-01T14:16:21.828Z,9.60
2019-03-01T14:17:26.349Z,10.20
2019-03-01T14:18:33.434Z,10.87
2019-03-01T14:19:39.021Z,10.13
2019-03-01T14:20:43.338Z,10.17
2019-03-01T14:21:47.709Z,10.07
2019-03-01T14:22:52.149Z,10.27
2019-03-01T14:23:56.551Z,8.90
2019-03-01T14:25:02.503Z,9.57
2019-03-01T14:26:07.172Z,10.37
2019-03-01T14:27:12.042Z,10.87
2019-03-01T14:28:16.496Z,10.27
2019-03-01T14:29:20.908Z,10.83
2019-03-01T14:30:29.120Z,10.03
2019-03-01T14:31:31.428Z,9.47
2019-03-01T14:32:35.901Z,10.47
2019-03-01T14:33:40.425Z,10.30
2019-03-01T14:34:47.752Z,10.23
2019-03-01T14:35:51.036Z,10.97
2019-03-01T14:36:55.463Z,10.03
2019-03-01T14:37:59.913Z,9.90
2019-03-01T14:39:06.756Z,11.13
2019-03-01T14:40:12.226Z,10.57
2019-03-01T14:41:16.794Z,10.77
2019-03-01T14:42:21.323Z,10.63
2019-03-01T14:43:25.775Z,10.40
2019-03-01T14:44:30.632Z,11.07
2019-03-01T14:45:36.251Z,10.17
2019-03-01T14:46:40.665Z,9.73
2019-03-01T14:47:45.098Z,10.93
2019-03-01T14:48:49.569Z,9.63
2019-03-01T14:49:57.631Z,10.00
2019-03-01T14:51:00.351Z,10.80
2019-03-01T14:52:04.830Z,9.17
2019-03-01T14:53:09.301Z,9.73
2019-03-01T14:54:13.946Z,9.73
2019-03-01T14:55:23.087Z,8.50
2019-03-01T14:56:34.914Z,9.03
2019-03-01T14:57:43.079Z,8.23
2019-03-01T14:58:59.026Z,8.70
2019-03-01T15:00:17.649Z,8.20
2019-03-01T15:01:26.666Z,7.53
2019-03-01T15:03:02.721Z,7.73
2019-03-01T15:04:07.412Z,8.20
2019-03-01T15:05:17.780Z,8.37
2019-03-01T15:06:19.228Z,8.53
2019-03-01T15:07:27.953Z,9.00
2019-03-01T15:08:32.994Z,8.07
2019-03-01T15:09:37.451Z,8.20
2019-03-01T15:10:41.996Z,8.80
2019-03-01T15:11:46.432Z,8.77
2019-03-01T15:12:53.875Z,8.33
2019-03-01T15:13:57.616Z,6.90
2019-03-01T15:15:02.060Z,7.77
2019-03-01T15:16:06.954Z,7.80
2019-03-01T15:17:11.498Z,7.80
2019-03-01T15:18:15.865Z,6.93
2019-03-01T15:19:20.308Z,6.87
2019-03-01T15:20:24.819Z,9.20
2019-03-01T15:21:29.265Z,7.53
2019-03-01T15:22:33.694Z,7.00
2019-03-01T15:23:38.145Z,7.37
2019-03-01T15:24:42.589Z,7.87
2019-03-01T15:25:48.556Z,7.17
2019-03-01T15:26:53.168Z,7.83
2019-03-01T15:27:57.634Z,7.10
2019-03-01T15:29:02.096Z,6.77
2019-03-01T15:30:10.116Z,7.67
2019-03-01T15:31:14.688Z,8.13
2019-03-01T15:32:19.101Z,6.73
2019-03-01T15:33:23.505Z,6.53
2019-03-01T15:34:28.013Z,6.77
2019-03-01T15:35:32.503Z,6.97
2019-03-01T15:36:37.003Z,7.17
2019-03-01T15:37:41.411Z,7.13
2019-03-01T15:38:46.069Z,7.10
2019-03-01T15:39:51.287Z,6.53
2019-03-01T15:40:56.620Z,5.33
2019-03-01T15:42:01.023Z,5.77
2019-03-01T15:43:05.485Z,5.73
2019-03-01T15:44:09.860Z,6.37
2019-03-01T15:45:14.364Z,5.30
2019-03-01T15:46:18.891Z,5.77
2019-03-01T15:47:23.773Z,5.50
2019-03-01T15:48:29.521Z,5.60
2019-03-01T15:49:34.053Z,5.07
2019-03-01T15:50:38.680Z,6.10
2019-03-01T15:51:43.219Z,5.97
2019-03-01T15:52:49.658Z,5.30
2019-03-01T15:53:53.820Z,5.73
2019-03-01T15:54:58.263Z,4.93
2019-03-01T15:56:05.968Z,5.07
2019-03-01T15:57:08.937Z,4.87
2019-03-01T15:58:13.364Z,5.37
2019-03-01T15:59:17.843Z,5.53
2019-03-01T16:00:25.674Z,5.63
2019-03-01T16:01:28.592Z,4.73
2019-03-01T16:02:33.124Z,5.23
2019-03-01T16:03:37.564Z,5.53
2019-03-01T16:04:42.090Z,4.87
2019-03-01T16:05:46.589Z,4.90
2019-03-01T16:06:55.274Z,5.27
2019-03-01T16:07:57.437Z,5.07
2019-03-01T16:09:01.896Z,5.03
2019-03-01T16:10:07.963Z,4.77
2019-03-01T16:11:13.599Z,4.70
2019-03-01T16:12:18.222Z,4.23
2019-03-01T16:13:22.792Z,4.90
2019-03-01T16:14:27.621Z,4.43
2019-03-01T16:15:34.901Z,5.17
2019-03-01T16:16:38.402Z,4.80
2019-03-01T16:17:42.995Z,5.73
2019-03-01T16:18:47.969Z,5.27
2019-03-01T16:19:54.421Z,5.40
2019-03-01T16:21:01.943Z,5.20
2019-03-01T16:22:05.395Z,5.37
2019-03-01T16:23:09.939Z,5.50
2019-03-01T16:24:14.602Z,5.03
2019-03-01T16:25:20.640Z,5.23
2019-03-01T16:26:29.878Z,5.30
2019-03-01T16:27:32.209Z,5.40
2019-03-01T16:28:37.513Z,5.20
2019-03-01T16:29:43.142Z,5.63
2019-03-01T16:30:49.722Z,5.67
2019-03-01T16:31:54.520Z,5.10
2019-03-01T16:32:59.112Z,5.63
2019-03-01T16:34:04.346Z,5.33
2019-03-01T16:35:16.367Z,5.70
2019-03-01T16:36:23.452Z,5.40
2019-03-01T16:37:28.764Z,6.13
2019-03-01T16:38:40.695Z,5.93
2019-03-01T16:39:39.925Z,5.50
2019-03-01T16:40:44.548Z,5.20
2019-03-01T16:41:51.781Z,4.90
2019-03-01T16:42:55.891Z,4.80
2019-03-01T16:44:01.318Z,5.30
2019-03-01T16:45:07.055Z,4.93
2019-03-01T16:46:11.640Z,5.73
2019-03-01T16:47:16.259Z,5.27
2019-03-01T16:48:21.017Z,4.70